Tiger — 9HA2271 — position and weather

sailwx.info

Track history (hours):
 
Tides and Currents Weather Stations Pressure Air Temp Water Temp Dewpoint Dewpoint Depression Visibility Wind Speed Wind Dir Waves Ship Positions

Tiger

Last reported at 2015-Jul-30 15:33 UTC. Time now 2015-Jul-30 16:16 UTC.
Position N 51°20' E 003°13'.

Length 232 m; draft 10.1 m.

Type: Cargo ship. MMSI: 248223000.

Date/timePositionNaut miles runAvg speedWind from/ knotsBaromVisibWave heightAir tempDewpointWater temp
2015-Jul-30 15:33N 51°20' E 003°13'1 1.1
2015-Jul-30 14:34N 51°19' E 003°14'0 0.0
2015-Jul-30 13:32N 51°19' E 003°14'0 0.0
2015-Jul-30 12:32N 51°19' E 003°14'0 0.0
2015-Jul-30 11:32N 51°19' E 003°14'0 0.0
2015-Jul-30 10:32N 51°19' E 003°14'0 0.0
2015-Jul-30 09:32N 51°19' E 003°14'0 0.0
2015-Jul-30 08:32N 51°19' E 003°14'0 0.0
2015-Jul-30 07:32N 51°19' E 003°14'0 0.0
2015-Jul-30 06:32N 51°19' E 003°14'0 0.0
2015-Jul-30 05:32N 51°19' E 003°14'0 0.0
2015-Jul-30 04:32N 51°19' E 003°14'0 0.0
2015-Jul-30 03:32N 51°19' E 003°14'0 0.0
2015-Jul-30 02:32N 51°19' E 003°14'0 0.0
2015-Jul-30 01:32N 51°19' E 003°14'0 0.0
2015-Jul-30 00:32N 51°19' E 003°14'0 0.0
2015-Jul-29 23:32N 51°19' E 003°14'0 0.0
2015-Jul-29 22:32N 51°19' E 003°14'0 0.0
2015-Jul-29 21:32N 51°19' E 003°14'0 0.0
2015-Jul-29 20:32N 51°19' E 003°14'0 0.0
2015-Jul-29 19:32N 51°19' E 003°14'0 0.0
2015-Jul-29 18:32N 51°19' E 003°14'0 0.0
2015-Jul-29 17:32N 51°19' E 003°14'0 0.0
2015-Jul-29 16:32N 51°19' E 003°14'0 0.0
2015-Jul-29 15:32N 51°19' E 003°14'0 0.0
2015-Jul-29 14:32N 51°19' E 003°14'0 0.0
2015-Jul-29 13:32N 51°19' E 003°14'0 0.0
2015-Jul-29 12:32N 51°19' E 003°14'0 0.0
2015-Jul-29 11:29N 51°19' E 003°14'0 0.0
2015-Jul-29 10:32N 51°19' E 003°14'0 0.0
2015-Jul-29 09:32N 51°19' E 003°14'0 0.0
2015-Jul-29 08:32N 51°19' E 003°14'0 0.0
2015-Jul-29 07:32N 51°19' E 003°14'0 0.0
2015-Jul-29 06:32N 51°19' E 003°14'0 0.0
2015-Jul-29 05:32N 51°19' E 003°14'0 0.0
2015-Jul-29 04:32N 51°19' E 003°14'0 0.0
2015-Jul-29 03:32N 51°19' E 003°14'0 0.0
2015-Jul-29 02:32N 51°19' E 003°14'0 0.0
2015-Jul-29 01:32N 51°19' E 003°14'0 0.0
2015-Jul-29 00:32N 51°19' E 003°14'0 0.0
2015-Jul-28 23:32N 51°19' E 003°14'1 0.8
2015-Jul-28 22:18N 51°20' E 003°13'0 0.3
2015-Jul-28 21:33N 51°20' E 003°13'10 9.7
2015-Jul-28 20:33N 51°23' E 002°58'1010.3
2015-Jul-28 19:33N 51°25' E 002°42'4113.8
2015-Jul-28 16:33N 52°06' E 002°52'1716.5
2015-Jul-28 15:33N 52°20' E 003°08'3215.6
2015-Jul-28 13:28N 52°46' E 003°40'1414.9
2015-Jul-28 12:33N 52°56' E 003°54'1413.9
2015-Jul-28 11:33N 53°05' E 004°12'1613.6
2015-Jul-28 10:23N 53°17' E 004°30'1214.6
2015-Jul-28 09:33N 53°28' E 004°37'1312.6
2015-Jul-28 08:33N 53°33' E 004°57'1313.0
2015-Jul-28 07:34N 53°37' E 005°17'1514.8
2015-Jul-28 06:34N 53°42' E 005°41'1413.9
2015-Jul-28 05:33N 53°47' E 006°03'3912.6
2015-Jul-28 02:30N 53°56' E 007°07'1213.3
2015-Jul-28 01:33N 53°59' E 007°28'1111.3
2015-Jul-28 00:34N 53°54' E 007°45'1414.3
2015-Jul-27 23:33N 53°48' E 008°08'1717.0
2015-Jul-27 22:33N 53°37' E 008°29'4 3.8
2015-Jul-27 21:33N 53°34' E 008°33'0 0.5
2015-Jul-27 20:32N 53°35' E 008°33'0 0.0
2015-Jul-27 19:32N 53°35' E 008°33'0 0.0
2015-Jul-27 18:32N 53°35' E 008°33'0 0.0
2015-Jul-27 17:32N 53°35' E 008°33'0 0.0
2015-Jul-27 16:32N 53°35' E 008°33'0 0.0
2015-Jul-27 15:32N 53°35' E 008°33'0 0.0
2015-Jul-27 14:32N 53°35' E 008°33'0 0.0
2015-Jul-27 13:32N 53°35' E 008°33'0 0.0
2015-Jul-27 12:32N 53°35' E 008°33'0 0.0
2015-Jul-27 11:32N 53°35' E 008°33'0 0.0
2015-Jul-27 10:32N 53°35' E 008°33'0 0.0
2015-Jul-27 09:32N 53°35' E 008°33'0 0.0
2015-Jul-27 08:32N 53°35' E 008°33'0 0.0
2015-Jul-27 07:32N 53°35' E 008°33'0 0.0
2015-Jul-27 06:32N 53°35' E 008°33'0 0.0
2015-Jul-27 05:32N 53°35' E 008°33'0 0.0
2015-Jul-27 04:32N 53°35' E 008°33'0 0.0
2015-Jul-27 03:32N 53°35' E 008°33'0 0.0
2015-Jul-27 02:32N 53°35' E 008°33'0 0.0
2015-Jul-27 01:32N 53°35' E 008°33'0 0.0
2015-Jul-27 00:32N 53°35' E 008°33'0 0.5
2015-Jul-26 23:33N 53°34' E 008°33'2 2.3
2015-Jul-26 22:33N 53°36' E 008°30'1211.7
2015-Jul-26 21:33N 53°44' E 008°16'1414.0
2015-Jul-26 20:33N 53°52' E 007°56'1312.6
2015-Jul-26 19:33N 53°54' E 007°35'6 6.1
2015-Jul-26 18:33N 53°51' E 007°26'0 0.2
2015-Jul-26 17:33N 53°51' E 007°26'1 1.4
2015-Jul-26 16:33N 53°50' E 007°25'1 1.5
2015-Jul-26 15:33N 53°51' E 007°23'4 3.9
2015-Jul-26 14:33N 53°53' E 007°18'3516.8
2015-Jul-26 12:28N 53°46' E 006°20'1617.8
2015-Jul-26 11:33N 53°40' E 005°54'1817.6
2015-Jul-26 10:34N 53°34' E 005°27'1717.2
2015-Jul-26 09:33N 53°28' E 004°59'2015.7
2015-Jul-26 08:18N 53°15' E 004°36'1316.9
2015-Jul-26 07:33N 53°04' E 004°25'1716.7
2015-Jul-26 06:33N 52°49' E 004°12'1716.8
2015-Jul-26 05:33N 52°36' E 003°54'8016.1
2015-Jul-26 00:34N 51°29' E 002°41'6 6.1
2015-Jul-25 23:33N 51°25' E 002°48'1414.3
2015-Jul-25 22:34N 51°23' E 003°10'3 3.0
2015-Jul-25 21:33N 51°20' E 003°13'2 1.6
2015-Jul-25 20:27N 51°18' E 003°14'0 0.0
2015-Jul-25 19:33N 51°18' E 003°14'0 0.0
2015-Jul-25 18:33N 51°18' E 003°14'0 0.0
2015-Jul-25 17:27N 51°18' E 003°14'0 0.0
2015-Jul-25 16:33N 51°18' E 003°14'0 0.0
2015-Jul-25 15:33N 51°18' E 003°14'0 0.0
2015-Jul-25 14:33N 51°18' E 003°14'0 0.0
2015-Jul-25 13:33N 51°18' E 003°14'0 0.0
2015-Jul-25 12:33N 51°18' E 003°14'0 0.0
2015-Jul-25 11:33N 51°18' E 003°14'0 0.0
2015-Jul-25 10:33N 51°18' E 003°14'0 0.0
2015-Jul-25 09:33N 51°18' E 003°14'0 0.0
2015-Jul-25 08:33N 51°18' E 003°14'0 0.0
2015-Jul-25 07:33N 51°18' E 003°14'0 0.0
2015-Jul-25 06:33N 51°18' E 003°14'0 0.0
2015-Jul-25 05:33N 51°18' E 003°14'0 0.0
2015-Jul-25 04:33N 51°18' E 003°14'0 0.0
2015-Jul-25 03:30N 51°18' E 003°14'0 0.0
2015-Jul-25 02:30N 51°18' E 003°14'0 0.0
2015-Jul-25 01:33N 51°18' E 003°14'0 0.0
2015-Jul-25 00:32N 51°18' E 003°14'0 0.0
2015-Jul-24 23:33N 51°18' E 003°14'0 0.0
2015-Jul-24 22:32N 51°18' E 003°14'0 0.0
2015-Jul-24 21:33N 51°18' E 003°14'0 0.0
2015-Jul-24 20:33N 51°18' E 003°14'0 0.0
2015-Jul-24 19:32N 51°18' E 003°14'0 0.0
2015-Jul-24 18:32N 51°18' E 003°14'0 0.5
2015-Jul-24 17:32N 51°19' E 003°14'0 0.0
2015-Jul-24 16:32N 51°19' E 003°14'0 0.0
2015-Jul-24 15:32N 51°19' E 003°14'0 0.0
2015-Jul-24 14:32N 51°19' E 003°14'0 0.0
2015-Jul-24 13:32N 51°19' E 003°14'0 0.0
2015-Jul-24 12:32N 51°19' E 003°14'0 0.0
2015-Jul-24 11:32N 51°19' E 003°14'1 1.3
2015-Jul-24 10:33N 51°20' E 003°13'0 0.1
2015-Jul-24 09:33N 51°20' E 003°13'5 4.5
2015-Jul-24 08:34N 51°24' E 003°11'1515.3
2015-Jul-24 07:34N 51°26' E 003°35'10 9.6
2015-Jul-24 06:34N 51°21' E 003°48'10 9.5
2015-Jul-24 05:34N 51°25' E 004°02'9 8.7
2015-Jul-24 04:33N 51°21' E 004°14'6 5.8
2015-Jul-24 03:33N 51°16' E 004°17'0 0.4
2015-Jul-24 02:33N 51°16' E 004°16'1 1.1
2015-Jul-24 01:31N 51°16' E 004°14'0 0.0
2015-Jul-24 00:31N 51°16' E 004°14'0 0.0
2015-Jul-23 23:31N 51°16' E 004°14'0 0.0
2015-Jul-23 22:31N 51°16' E 004°14'0 0.0
2015-Jul-23 21:31N 51°16' E 004°14'0 0.0
2015-Jul-23 20:31N 51°16' E 004°14'0 0.0
2015-Jul-23 19:31N 51°16' E 004°14'0 0.0
2015-Jul-23 18:31N 51°16' E 004°14'0 0.0
2015-Jul-23 17:31N 51°16' E 004°14'0 0.0
2015-Jul-23 16:31N 51°16' E 004°14'0 0.0
2015-Jul-23 15:31N 51°16' E 004°14'0 0.0
2015-Jul-23 14:31N 51°16' E 004°14'0 0.0
2015-Jul-23 13:25N 51°16' E 004°14'0 0.0
2015-Jul-23 12:31N 51°16' E 004°14'0 0.0
2015-Jul-23 11:31N 51°16' E 004°14'0 0.0
2015-Jul-23 10:31N 51°16' E 004°14'0 0.0
2015-Jul-23 09:31N 51°16' E 004°14'0 0.0
2015-Jul-23 08:31N 51°16' E 004°14'0 0.0
2015-Jul-23 07:31N 51°16' E 004°14'0 0.0
2015-Jul-23 06:31N 51°16' E 004°14'0 0.0
2015-Jul-23 05:28N 51°16' E 004°14'0 0.0
2015-Jul-23 04:31N 51°16' E 004°14'0 0.0
2015-Jul-23 03:31N 51°16' E 004°14'0 0.0
2015-Jul-23 02:31N 51°16' E 004°14'0 0.0
2015-Jul-23 01:31N 51°16' E 004°14'0 0.0
2015-Jul-23 00:31N 51°16' E 004°14'0 0.0
2015-Jul-22 23:31N 51°16' E 004°14'0 0.0
2015-Jul-22 22:31N 51°16' E 004°14'0 0.0
2015-Jul-22 21:31N 51°16' E 004°14'0 0.0
2015-Jul-22 20:31N 51°16' E 004°14'0 0.0
2015-Jul-22 19:31N 51°16' E 004°14'0 0.0
2015-Jul-22 18:31N 51°16' E 004°14'0 0.0
2015-Jul-22 17:31N 51°16' E 004°14'0 0.0
2015-Jul-22 16:31N 51°16' E 004°14'0 0.0
2015-Jul-22 15:31N 51°16' E 004°14'0 0.0
2015-Jul-22 14:31N 51°16' E 004°14'1 1.2
2015-Jul-22 13:34N 51°16' E 004°16'0 0.4
2015-Jul-22 12:33N 51°16' E 004°17'5 5.0
2015-Jul-22 11:33N 51°21' E 004°16'1010.3
2015-Jul-22 10:34N 51°26' E 004°01'1111.2
2015-Jul-22 09:33N 51°22' E 003°44'8 8.1
2015-Jul-22 08:33N 51°25' E 003°32'1716.5
2015-Jul-22 07:30N 51°24' E 003°04'1415.0
2015-Jul-22 06:33N 51°23' E 002°41'4 3.7
2015-Jul-22 05:33N 51°24' E 002°36'0 0.2
2015-Jul-22 04:33N 51°24' E 002°36'0 0.0
2015-Jul-22 01:30N 51°24' E 002°36'0 0.1
2015-Jul-22 00:15N 51°24' E 002°36'0 0.1
2015-Jul-21 23:04N 51°24' E 002°36'1 1.0
2015-Jul-21 22:33N 51°24' E 002°36'0 0.1
2015-Jul-21 21:33N 51°24' E 002°36'0 0.0
2015-Jul-21 20:33N 51°24' E 002°36'0 0.1
2015-Jul-21 19:33N 51°24' E 002°36'1 0.5
2015-Jul-21 18:34N 51°24' E 002°36'1313.0
2015-Jul-21 17:33N 51°19' E 002°17'8 8.1
2015-Jul-21 16:33N 51°21' E 002°04'8 7.9
2015-Jul-21 15:33N 51°26' E 001°56'8 7.5
2015-Jul-21 14:33N 51°30' E 001°45'10 9.7
2015-Jul-21 13:34N 51°28' E 001°29'1312.5
2015-Jul-21 12:33N 51°29' E 001°09'1413.8
2015-Jul-21 11:33N 51°28' E 000°47'2 2.1
2015-Jul-21 10:28N 51°26' E 000°44'0 0.0
2015-Jul-21 09:33N 51°26' E 000°44'0 0.0
2015-Jul-21 08:33N 51°26' E 000°44'0 0.0
2015-Jul-21 07:30N 51°26' E 000°44'0 0.0
2015-Jul-21 06:33N 51°26' E 000°44'0 0.0
2015-Jul-21 05:33N 51°26' E 000°44'6 5.8
2015-Jul-21 04:33N 51°29' E 000°53'1414.0
2015-Jul-21 03:33N 51°29' E 001°15'1111.0
2015-Jul-21 02:33N 51°26' E 001°32'10 9.8
2015-Jul-21 01:33N 51°17' E 001°37'1110.8
2015-Jul-21 00:34N 51°07' E 001°42'1313.2
2015-Jul-20 23:34N 50°57' E 001°28'  
Track history (hours):
 
Tides and Currents Weather Stations Pressure Air Temp Water Temp Dewpoint Dewpoint Depression Visibility Wind Speed Wind Dir Waves Ship Positions

Tiger

Last reported at 2015-Jul-30 15:33 UTC. Time now 2015-Jul-30 16:16 UTC.
Position N 51°20' E 003°13'.

Length 232 m; draft 10.1 m.

Type: Cargo ship. MMSI: 248223000.

Date/timePositionNaut miles runAvg speedWind from/ knotsBaromVisibWave heightAir tempDewpointWater temp
2015-Jul-30 15:33N 51°20' E 003°13'1 1.1
2015-Jul-30 14:34N 51°19' E 003°14'0 0.0
2015-Jul-30 13:32N 51°19' E 003°14'0 0.0
2015-Jul-30 12:32N 51°19' E 003°14'0 0.0
2015-Jul-30 11:32N 51°19' E 003°14'0 0.0
2015-Jul-30 10:32N 51°19' E 003°14'0 0.0
2015-Jul-30 09:32N 51°19' E 003°14'0 0.0
2015-Jul-30 08:32N 51°19' E 003°14'0 0.0
2015-Jul-30 07:32N 51°19' E 003°14'0 0.0
2015-Jul-30 06:32N 51°19' E 003°14'0 0.0
2015-Jul-30 05:32N 51°19' E 003°14'0 0.0
2015-Jul-30 04:32N 51°19' E 003°14'0 0.0
2015-Jul-30 03:32N 51°19' E 003°14'0 0.0
2015-Jul-30 02:32N 51°19' E 003°14'0 0.0
2015-Jul-30 01:32N 51°19' E 003°14'0 0.0
2015-Jul-30 00:32N 51°19' E 003°14'0 0.0
2015-Jul-29 23:32N 51°19' E 003°14'0 0.0
2015-Jul-29 22:32N 51°19' E 003°14'0 0.0
2015-Jul-29 21:32N 51°19' E 003°14'0 0.0
2015-Jul-29 20:32N 51°19' E 003°14'0 0.0
2015-Jul-29 19:32N 51°19' E 003°14'0 0.0
2015-Jul-29 18:32N 51°19' E 003°14'0 0.0
2015-Jul-29 17:32N 51°19' E 003°14'0 0.0
2015-Jul-29 16:32N 51°19' E 003°14'0 0.0
2015-Jul-29 15:32N 51°19' E 003°14'0 0.0
2015-Jul-29 14:32N 51°19' E 003°14'0 0.0
2015-Jul-29 13:32N 51°19' E 003°14'0 0.0
2015-Jul-29 12:32N 51°19' E 003°14'0 0.0
2015-Jul-29 11:29N 51°19' E 003°14'0 0.0
2015-Jul-29 10:32N 51°19' E 003°14'0 0.0
2015-Jul-29 09:32N 51°19' E 003°14'0 0.0
2015-Jul-29 08:32N 51°19' E 003°14'0 0.0
2015-Jul-29 07:32N 51°19' E 003°14'0 0.0
2015-Jul-29 06:32N 51°19' E 003°14'0 0.0
2015-Jul-29 05:32N 51°19' E 003°14'0 0.0
2015-Jul-29 04:32N 51°19' E 003°14'0 0.0
2015-Jul-29 03:32N 51°19' E 003°14'0 0.0
2015-Jul-29 02:32N 51°19' E 003°14'0 0.0
2015-Jul-29 01:32N 51°19' E 003°14'0 0.0
2015-Jul-29 00:32N 51°19' E 003°14'0 0.0
2015-Jul-28 23:32N 51°19' E 003°14'1 0.8
2015-Jul-28 22:18N 51°20' E 003°13'0 0.3
2015-Jul-28 21:33N 51°20' E 003°13'10 9.7
2015-Jul-28 20:33N 51°23' E 002°58'1010.3
2015-Jul-28 19:33N 51°25' E 002°42'4113.8
2015-Jul-28 16:33N 52°06' E 002°52'1716.5
2015-Jul-28 15:33N 52°20' E 003°08'3215.6
2015-Jul-28 13:28N 52°46' E 003°40'1414.9
2015-Jul-28 12:33N 52°56' E 003°54'1413.9
2015-Jul-28 11:33N 53°05' E 004°12'1613.6
2015-Jul-28 10:23N 53°17' E 004°30'1214.6
2015-Jul-28 09:33N 53°28' E 004°37'1312.6
2015-Jul-28 08:33N 53°33' E 004°57'1313.0
2015-Jul-28 07:34N 53°37' E 005°17'1514.8
2015-Jul-28 06:34N 53°42' E 005°41'1413.9
2015-Jul-28 05:33N 53°47' E 006°03'3912.6
2015-Jul-28 02:30N 53°56' E 007°07'1213.3
2015-Jul-28 01:33N 53°59' E 007°28'1111.3
2015-Jul-28 00:34N 53°54' E 007°45'1414.3
2015-Jul-27 23:33N 53°48' E 008°08'1717.0
2015-Jul-27 22:33N 53°37' E 008°29'4 3.8
2015-Jul-27 21:33N 53°34' E 008°33'0 0.5
2015-Jul-27 20:32N 53°35' E 008°33'0 0.0
2015-Jul-27 19:32N 53°35' E 008°33'0 0.0
2015-Jul-27 18:32N 53°35' E 008°33'0 0.0
2015-Jul-27 17:32N 53°35' E 008°33'0 0.0
2015-Jul-27 16:32N 53°35' E 008°33'0 0.0
2015-Jul-27 15:32N 53°35' E 008°33'0 0.0
2015-Jul-27 14:32N 53°35' E 008°33'0 0.0
2015-Jul-27 13:32N 53°35' E 008°33'0 0.0
2015-Jul-27 12:32N 53°35' E 008°33'0 0.0
2015-Jul-27 11:32N 53°35' E 008°33'0 0.0
2015-Jul-27 10:32N 53°35' E 008°33'0 0.0
2015-Jul-27 09:32N 53°35' E 008°33'0 0.0
2015-Jul-27 08:32N 53°35' E 008°33'0 0.0
2015-Jul-27 07:32N 53°35' E 008°33'0 0.0
2015-Jul-27 06:32N 53°35' E 008°33'0 0.0
2015-Jul-27 05:32N 53°35' E 008°33'0 0.0
2015-Jul-27 04:32N 53°35' E 008°33'0 0.0
2015-Jul-27 03:32N 53°35' E 008°33'0 0.0
2015-Jul-27 02:32N 53°35' E 008°33'0 0.0
2015-Jul-27 01:32N 53°35' E 008°33'0 0.0
2015-Jul-27 00:32N 53°35' E 008°33'0 0.5
2015-Jul-26 23:33N 53°34' E 008°33'2 2.3
2015-Jul-26 22:33N 53°36' E 008°30'1211.7
2015-Jul-26 21:33N 53°44' E 008°16'1414.0
2015-Jul-26 20:33N 53°52' E 007°56'1312.6
2015-Jul-26 19:33N 53°54' E 007°35'6 6.1
2015-Jul-26 18:33N 53°51' E 007°26'0 0.2
2015-Jul-26 17:33N 53°51' E 007°26'1 1.4
2015-Jul-26 16:33N 53°50' E 007°25'1 1.5
2015-Jul-26 15:33N 53°51' E 007°23'4 3.9
2015-Jul-26 14:33N 53°53' E 007°18'3516.8
2015-Jul-26 12:28N 53°46' E 006°20'1617.8
2015-Jul-26 11:33N 53°40' E 005°54'1817.6
2015-Jul-26 10:34N 53°34' E 005°27'1717.2
2015-Jul-26 09:33N 53°28' E 004°59'2015.7
2015-Jul-26 08:18N 53°15' E 004°36'1316.9
2015-Jul-26 07:33N 53°04' E 004°25'1716.7
2015-Jul-26 06:33N 52°49' E 004°12'1716.8
2015-Jul-26 05:33N 52°36' E 003°54'8016.1
2015-Jul-26 00:34N 51°29' E 002°41'6 6.1
2015-Jul-25 23:33N 51°25' E 002°48'1414.3
2015-Jul-25 22:34N 51°23' E 003°10'3 3.0
2015-Jul-25 21:33N 51°20' E 003°13'2 1.6
2015-Jul-25 20:27N 51°18' E 003°14'0 0.0
2015-Jul-25 19:33N 51°18' E 003°14'0 0.0
2015-Jul-25 18:33N 51°18' E 003°14'0 0.0
2015-Jul-25 17:27N 51°18' E 003°14'0 0.0
2015-Jul-25 16:33N 51°18' E 003°14'0 0.0
2015-Jul-25 15:33N 51°18' E 003°14'0 0.0
2015-Jul-25 14:33N 51°18' E 003°14'0 0.0
2015-Jul-25 13:33N 51°18' E 003°14'0 0.0
2015-Jul-25 12:33N 51°18' E 003°14'0 0.0
2015-Jul-25 11:33N 51°18' E 003°14'0 0.0
2015-Jul-25 10:33N 51°18' E 003°14'0 0.0
2015-Jul-25 09:33N 51°18' E 003°14'0 0.0
2015-Jul-25 08:33N 51°18' E 003°14'0 0.0
2015-Jul-25 07:33N 51°18' E 003°14'0 0.0
2015-Jul-25 06:33N 51°18' E 003°14'0 0.0
2015-Jul-25 05:33N 51°18' E 003°14'0 0.0
2015-Jul-25 04:33N 51°18' E 003°14'0 0.0
2015-Jul-25 03:30N 51°18' E 003°14'0 0.0
2015-Jul-25 02:30N 51°18' E 003°14'0 0.0
2015-Jul-25 01:33N 51°18' E 003°14'0 0.0
2015-Jul-25 00:32N 51°18' E 003°14'0 0.0
2015-Jul-24 23:33N 51°18' E 003°14'0 0.0
2015-Jul-24 22:32N 51°18' E 003°14'0 0.0
2015-Jul-24 21:33N 51°18' E 003°14'0 0.0
2015-Jul-24 20:33N 51°18' E 003°14'0 0.0
2015-Jul-24 19:32N 51°18' E 003°14'0 0.0
2015-Jul-24 18:32N 51°18' E 003°14'0 0.5
2015-Jul-24 17:32N 51°19' E 003°14'0 0.0
2015-Jul-24 16:32N 51°19' E 003°14'0 0.0
2015-Jul-24 15:32N 51°19' E 003°14'0 0.0
2015-Jul-24 14:32N 51°19' E 003°14'0 0.0
2015-Jul-24 13:32N 51°19' E 003°14'0 0.0
2015-Jul-24 12:32N 51°19' E 003°14'0 0.0
2015-Jul-24 11:32N 51°19' E 003°14'1 1.3
2015-Jul-24 10:33N 51°20' E 003°13'0 0.1
2015-Jul-24 09:33N 51°20' E 003°13'5 4.5
2015-Jul-24 08:34N 51°24' E 003°11'1515.3
2015-Jul-24 07:34N 51°26' E 003°35'10 9.6
2015-Jul-24 06:34N 51°21' E 003°48'10 9.5
2015-Jul-24 05:34N 51°25' E 004°02'9 8.7
2015-Jul-24 04:33N 51°21' E 004°14'6 5.8
2015-Jul-24 03:33N 51°16' E 004°17'0 0.4
2015-Jul-24 02:33N 51°16' E 004°16'1 1.1
2015-Jul-24 01:31N 51°16' E 004°14'0 0.0
2015-Jul-24 00:31N 51°16' E 004°14'0 0.0
2015-Jul-23 23:31N 51°16' E 004°14'0 0.0
2015-Jul-23 22:31N 51°16' E 004°14'0 0.0
2015-Jul-23 21:31N 51°16' E 004°14'0 0.0
2015-Jul-23 20:31N 51°16' E 004°14'0 0.0
2015-Jul-23 19:31N 51°16' E 004°14'0 0.0
2015-Jul-23 18:31N 51°16' E 004°14'0 0.0
2015-Jul-23 17:31N 51°16' E 004°14'0 0.0
2015-Jul-23 16:31N 51°16' E 004°14'0 0.0
2015-Jul-23 15:31N 51°16' E 004°14'0 0.0
2015-Jul-23 14:31N 51°16' E 004°14'0 0.0
2015-Jul-23 13:25N 51°16' E 004°14'0 0.0
2015-Jul-23 12:31N 51°16' E 004°14'0 0.0
2015-Jul-23 11:31N 51°16' E 004°14'0 0.0
2015-Jul-23 10:31N 51°16' E 004°14'0 0.0
2015-Jul-23 09:31N 51°16' E 004°14'0 0.0
2015-Jul-23 08:31N 51°16' E 004°14'0 0.0
2015-Jul-23 07:31N 51°16' E 004°14'0 0.0
2015-Jul-23 06:31N 51°16' E 004°14'0 0.0
2015-Jul-23 05:28N 51°16' E 004°14'0 0.0
2015-Jul-23 04:31N 51°16' E 004°14'0 0.0
2015-Jul-23 03:31N 51°16' E 004°14'0 0.0
2015-Jul-23 02:31N 51°16' E 004°14'0 0.0
2015-Jul-23 01:31N 51°16' E 004°14'0 0.0
2015-Jul-23 00:31N 51°16' E 004°14'0 0.0
2015-Jul-22 23:31N 51°16' E 004°14'0 0.0
2015-Jul-22 22:31N 51°16' E 004°14'0 0.0
2015-Jul-22 21:31N 51°16' E 004°14'0 0.0
2015-Jul-22 20:31N 51°16' E 004°14'0 0.0
2015-Jul-22 19:31N 51°16' E 004°14'0 0.0
2015-Jul-22 18:31N 51°16' E 004°14'0 0.0
2015-Jul-22 17:31N 51°16' E 004°14'0 0.0
2015-Jul-22 16:31N 51°16' E 004°14'0 0.0
2015-Jul-22 15:31N 51°16' E 004°14'0 0.0
2015-Jul-22 14:31N 51°16' E 004°14'1 1.2
2015-Jul-22 13:34N 51°16' E 004°16'0 0.4
2015-Jul-22 12:33N 51°16' E 004°17'5 5.0
2015-Jul-22 11:33N 51°21' E 004°16'1010.3
2015-Jul-22 10:34N 51°26' E 004°01'1111.2
2015-Jul-22 09:33N 51°22' E 003°44'8 8.1
2015-Jul-22 08:33N 51°25' E 003°32'1716.5
2015-Jul-22 07:30N 51°24' E 003°04'1415.0
2015-Jul-22 06:33N 51°23' E 002°41'4 3.7
2015-Jul-22 05:33N 51°24' E 002°36'0 0.2
2015-Jul-22 04:33N 51°24' E 002°36'0 0.0
2015-Jul-22 01:30N 51°24' E 002°36'0 0.1
2015-Jul-22 00:15N 51°24' E 002°36'0 0.1
2015-Jul-21 23:04N 51°24' E 002°36'1 1.0
2015-Jul-21 22:33N 51°24' E 002°36'0 0.1
2015-Jul-21 21:33N 51°24' E 002°36'0 0.0
2015-Jul-21 20:33N 51°24' E 002°36'0 0.1
2015-Jul-21 19:33N 51°24' E 002°36'1 0.5
2015-Jul-21 18:34N 51°24' E 002°36'1313.0
2015-Jul-21 17:33N 51°19' E 002°17'8 8.1
2015-Jul-21 16:33N 51°21' E 002°04'8 7.9
2015-Jul-21 15:33N 51°26' E 001°56'8 7.5
2015-Jul-21 14:33N 51°30' E 001°45'10 9.7
2015-Jul-21 13:34N 51°28' E 001°29'1312.5
2015-Jul-21 12:33N 51°29' E 001°09'1413.8
2015-Jul-21 11:33N 51°28' E 000°47'2 2.1
2015-Jul-21 10:28N 51°26' E 000°44'0 0.0
2015-Jul-21 09:33N 51°26' E 000°44'0 0.0
2015-Jul-21 08:33N 51°26' E 000°44'0 0.0
2015-Jul-21 07:30N 51°26' E 000°44'0 0.0
2015-Jul-21 06:33N 51°26' E 000°44'0 0.0
2015-Jul-21 05:33N 51°26' E 000°44'6 5.8
2015-Jul-21 04:33N 51°29' E 000°53'1414.0
2015-Jul-21 03:33N 51°29' E 001°15'1111.0
2015-Jul-21 02:33N 51°26' E 001°32'10 9.8
2015-Jul-21 01:33N 51°17' E 001°37'1110.8
2015-Jul-21 00:34N 51°07' E 001°42'1313.2
2015-Jul-20 23:34N 50°57' E 001°28'  

Dump ship's entire track history